Nearby METAR Reports

 

KHAO - Hamilton, Ohio, USA
Distance from station: NW 8mi, 14km
Updated: 01/18/2019 11:53am
Overcast
Overcast
 Wind from NW
Wind: NW 3 mph , 6 km/h
Temperature: 36°F , 2°C
Dew Point: 30°F , -1°C
Humidity: 81%
Barometer: 30.20 inHg , 1022.7 hPa
Clouds: Overcast
Visibility: 10 miles , 16 km
Cloud details: Overcast 1300 ft
2019/01/18 16:53 KHAO 181653Z AUTO 31003KT 10SM OVC013 02/M01 A3020 RMK AO2 SLP232 T00171011
KMWO - Middletown/Hook, Ohio, USA
Distance from station: N 17mi, 27km
Updated: 01/18/2019 12:15pm
Overcast
Overcast
 Wind from calm
Wind: Calm
Temperature: 34°F , 1°C
Dew Point: 30°F , -1°C
Humidity: 87%
Barometer: 30.19 inHg , 1022.4 hPa
Clouds: Overcast
Visibility: 10 miles , 16 km
Cloud details: Overcast 1600 ft
2019/01/18 17:15 KMWO 181715Z AUTO 00000KT 10SM OVC016 01/M01 A3019 RMK AO2 T00131012
KCVG - Covington, Kentucky, USA
Distance from station: SW 22mi, 35km
Updated: 01/18/2019 11:52am
Haze, Overcast
Haze, Overcast
 Wind from N
Wind: N 3 mph , 6 km/h
Temperature: 36°F , 2°C
Dew Point: 30°F , -1°C
Humidity: 81%
Barometer: 30.17 inHg , 1021.7 hPa
Summary: Haze
Clouds: Overcast
Visibility: 6 miles , 10 km
Cloud details: Overcast 900 ft
2019/01/18 16:52 KCVG 181652Z 35003KT 6SM HZ OVC009 02/M01 A3017 RMK AO2 SLP220 T00171011
 
KILN - Wilmington, Ohio, USA
Distance from station: ENE 33mi, 54km
Updated: 01/18/2019 12:06pm
Overcast
Overcast
 Wind from WSW
Wind: WSW 7 mph , 11 km/h
Temperature: 34°F , 1°C
Wind Chill: 28°F , -2°C
Dew Point: 28°F , -2°C
Humidity: 81%
Barometer: 30.16 inHg , 1021.3 hPa
Clouds: Overcast
Visibility: 8 miles , 13 km
Cloud details: Overcast 900 ft
2019/01/18 17:06 KILN 181706Z AUTO 25006KT 8SM OVC009 01/M02 A3016 RMK AO2 T00061017
KDAY - Dayton, Ohio, USA
Distance from station: NNE 43mi, 70km
Updated: 01/18/2019 11:56am
Overcast
Overcast
 Wind from NW
Wind: NW 7 mph , 11 km/h
Temperature: 36°F , 2°C
Wind Chill: 30°F , -1°C
Dew Point: 28°F , -2°C
Humidity: 75%
Barometer: 30.17 inHg , 1021.7 hPa
Clouds: Overcast
Visibility: 7 miles , 11 km
Cloud details: Overcast 1400 ft
2019/01/18 16:56 KDAY 181656Z 32006KT 7SM OVC014 02/M02 A3017 RMK AO2 SLP225 T00171017
KTZR - Columbus/Bolton, Ohio, USA
Distance from station: ENE 80mi, 128km
Updated: 01/18/2019 11:50am
Mist, Overcast
Mist, Overcast
 Wind from W
Wind: W 5 mph , 7 km/h
Temperature: 34°F , 1°C
Wind Chill: 29°F , -2°C
Dew Point: 30°F , -1°C
Humidity: 87%
Barometer: 30.17 inHg , 1021.7 hPa
Summary: Mist
Clouds: Overcast
Visibility: 3 miles , 5 km
Cloud details: Overcast 1200 ft
2019/01/18 16:50 KTZR 181650Z 28004KT 3SM BR OVC012 01/M01 A3017
 
KMGN - Harbor Springs, Michigan, USA
Distance from station: N 417mi, 672km
Updated: 01/18/2019 12:35pm
Light snow, Overcast
Light snow, Overcast
 Wind from NW
Wind: NW 12 mph , 19 km/h, Gust: 17 mph , 28 km/h
Temperature: 21°F , -6°C
Wind Chill: 9°F , -13°C
Dew Point: 10°F , -12°C
Humidity: 63%
Barometer: 30.14 inHg , 1020.7 hPa
Summary: Light Snow
Clouds: Overcast
Visibility: 10 miles , 16 km
Cloud details: Overcast 3300 ft
2019/01/18 17:35 KMGN 181735Z AUTO 31010G15KT 10SM -SN OVC033 M06/M12 A3014 RMK AO2 T10651129
KIND - Indianapolis, Indiana, USA
Distance from station: WNW 99mi, 160km
Updated: 01/18/2019 11:54am
Overcast
Overcast
 Wind from calm
Wind: Calm
Temperature: 36°F , 2°C
Dew Point: 28°F , -2°C
Humidity: 75%
Barometer: 30.18 inHg , 1022 hPa
Clouds: Overcast
Visibility: 7 miles , 11 km
Cloud details: Few Clouds 1200 ft
Overcast 3000 ft
2019/01/18 16:54 KIND 181654Z 00000KT 7SM FEW012 OVC030 02/M02 A3018 RMK AO2 SLP225 T00171017
KLEX - Lexington, Kentucky, USA
Distance from station: S 87mi, 141km
Updated: 01/18/2019 11:54am
Overcast
Overcast
 Wind from calm
Wind: Calm
Temperature: 41°F , 5°C
Dew Point: 34°F , 1°C
Humidity: 76%
Barometer: 30.16 inHg , 1021.3 hPa
Clouds: Overcast
Visibility: 10 miles , 16 km
Cloud details: Overcast 1600 ft
2019/01/18 16:54 KLEX 181654Z 00000KT 10SM OVC016 05/01 A3016 RMK AO2 SLP217 T00500006
 
KSDF - Louisville, Kentucky, USA
Distance from station: SW 104mi, 167km
Updated: 01/18/2019 12:09pm
Overcast
Overcast
 Wind from calm
Wind: Calm
Temperature: 39°F , 4°C
Dew Point: 34°F , 1°C
Humidity: 81%
Barometer: 30.18 inHg , 1022 hPa
Clouds: Overcast
Visibility: 9 miles , 14 km
Cloud details: Overcast 1400 ft
2019/01/18 17:09 KSDF 181709Z 00000KT 9SM OVC014 04/01 A3018 RMK AO2 T00440011